createdAt,value
2023-01-17T00:02:12.587Z,92403.63
2023-01-17T00:04:39.180Z,92400.78
2023-01-17T00:07:05.575Z,92394.06
2023-01-17T00:09:32.122Z,92403.31
2023-01-17T00:11:58.470Z,92400.03
2023-01-17T00:14:25.836Z,92398.03
2023-01-17T00:16:52.211Z,92402.22
2023-01-17T00:19:18.623Z,92406.22
2023-01-17T00:21:45.067Z,92394.81
2023-01-17T00:24:12.161Z,92401.34
2023-01-17T00:26:42.723Z,92396.00
2023-01-17T00:29:11.264Z,92396.84
2023-01-17T00:31:37.686Z,92409.94
2023-01-17T00:34:04.074Z,92415.13
2023-01-17T00:36:30.422Z,92398.47
2023-01-17T00:38:56.761Z,92395.31
2023-01-17T00:41:23.085Z,92384.34
2023-01-17T00:43:51.886Z,92382.56
2023-01-17T00:46:19.005Z,92382.97
2023-01-17T00:48:45.447Z,92377.16
2023-01-17T00:51:12.104Z,92376.19
2023-01-17T00:53:39.302Z,92360.78
2023-01-17T00:56:05.975Z,92368.56
2023-01-17T00:58:32.346Z,92375.84
2023-01-17T01:00:58.780Z,92364.00
2023-01-17T01:03:25.218Z,92364.19
2023-01-17T01:05:51.596Z,92363.72
2023-01-17T01:08:17.931Z,92353.28
2023-01-17T01:10:44.316Z,92354.78
2023-01-17T01:13:11.153Z,92347.16
2023-01-17T01:15:37.736Z,92336.94
2023-01-17T01:18:04.119Z,92336.31
2023-01-17T01:20:30.498Z,92330.06
2023-01-17T01:22:58.934Z,92325.84
2023-01-17T01:25:26.360Z,92319.25
2023-01-17T01:27:52.984Z,92328.69
2023-01-17T01:30:19.328Z,92319.63
2023-01-17T01:32:46.659Z,92315.41
2023-01-17T01:35:13.109Z,92304.00
2023-01-17T01:37:39.543Z,92303.59
2023-01-17T01:40:06.095Z,92307.00
2023-01-17T01:42:32.563Z,92309.66
2023-01-17T01:45:05.975Z,92307.84
2023-01-17T01:47:32.961Z,92297.84
2023-01-17T01:49:59.357Z,92297.25
2023-01-17T01:52:26.100Z,92303.44
2023-01-17T01:54:53.809Z,92293.00
2023-01-17T01:57:22.858Z,92294.25
2023-01-17T01:59:51.239Z,92296.66
2023-01-17T02:02:25.499Z,92294.84
2023-01-17T02:04:52.055Z,92293.25
2023-01-17T02:07:18.435Z,92293.09
2023-01-17T02:09:45.498Z,92290.84
2023-01-17T02:12:12.047Z,92287.25
2023-01-17T02:14:38.734Z,92281.25
2023-01-17T02:19:45.687Z,92271.03
2023-01-17T02:22:18.663Z,92268.00
2023-01-17T02:24:45.149Z,92254.13
2023-01-17T02:27:12.552Z,92246.84
2023-01-17T02:29:41.307Z,92253.25
2023-01-17T02:32:07.912Z,92256.81
2023-01-17T02:34:34.298Z,92239.34
2023-01-17T02:37:00.640Z,92237.34
2023-01-17T02:39:27.102Z,92240.28
2023-01-17T02:41:53.453Z,92233.44
2023-01-17T02:44:19.831Z,92234.59
2023-01-17T02:46:46.741Z,92230.00
2023-01-17T02:49:13.114Z,92218.53
2023-01-17T02:51:39.685Z,92217.28
2023-01-17T02:54:08.436Z,92222.09
2023-01-17T02:56:35.341Z,92214.41
2023-01-17T02:59:01.720Z,92209.34
2023-01-17T03:01:28.450Z,92203.94
2023-01-17T03:03:54.898Z,92201.69
2023-01-17T03:06:21.546Z,92189.91
2023-01-17T03:08:50.006Z,92196.00
2023-01-17T03:11:16.485Z,92186.56
2023-01-17T03:13:43.003Z,92181.72
2023-01-17T03:16:11.881Z,92182.09
2023-01-17T03:18:38.947Z,92182.47
2023-01-17T03:21:06.697Z,92167.88
2023-01-17T03:23:33.041Z,92177.25
2023-01-17T03:25:59.638Z,92167.38
2023-01-17T03:28:26.345Z,92162.31
2023-01-17T03:30:52.708Z,92153.91
2023-01-17T03:33:19.506Z,92155.53
2023-01-17T03:35:45.883Z,92147.88
2023-01-17T03:38:12.577Z,92135.50
2023-01-17T03:40:38.971Z,92137.75
2023-01-17T03:43:05.628Z,92133.00
2023-01-17T03:45:33.054Z,92131.56
2023-01-17T03:47:59.540Z,92136.34
2023-01-17T03:50:25.917Z,92129.34
2023-01-17T03:52:52.302Z,92124.31
2023-01-17T03:55:18.691Z,92109.28
2023-01-17T03:57:45.050Z,92113.06
2023-01-17T04:00:11.381Z,92113.44
2023-01-17T04:02:37.812Z,92109.25
2023-01-17T04:05:04.202Z,92097.22
2023-01-17T04:07:30.544Z,92101.00
2023-01-17T04:09:57.316Z,92087.38
2023-01-17T04:12:23.641Z,92087.38
2023-01-17T04:14:49.982Z,92086.00
2023-01-17T04:17:16.559Z,92081.63
2023-01-17T04:19:45.212Z,92082.25
2023-01-17T04:22:11.581Z,92077.66
2023-01-17T04:24:38.948Z,92080.06
2023-01-17T04:27:05.282Z,92074.25
2023-01-17T04:29:31.621Z,92058.84
2023-01-17T04:31:58.073Z,92059.84
2023-01-17T04:34:25.493Z,92065.41
2023-01-17T04:36:51.973Z,92061.63
2023-01-17T04:39:18.560Z,92062.06
2023-01-17T04:41:45.519Z,92061.25
2023-01-17T04:44:11.889Z,92068.63
2023-01-17T04:46:38.374Z,92055.63
2023-01-17T04:49:05.252Z,92047.25
2023-01-17T04:51:31.590Z,92049.31
2023-01-17T04:53:57.957Z,92041.50
2023-01-17T04:56:24.339Z,92040.28
2023-01-17T04:58:50.810Z,92029.72
2023-01-17T05:01:17.475Z,92038.31
2023-01-17T05:03:44.478Z,92036.94
2023-01-17T05:06:10.962Z,92044.16
2023-01-17T05:08:37.567Z,92035.19
2023-01-17T05:11:04.953Z,92038.31
2023-01-17T05:13:33.067Z,92031.31
2023-01-17T05:15:59.735Z,92024.06
2023-01-17T05:18:26.212Z,92018.88
2023-01-17T05:20:52.557Z,92013.88
2023-01-17T05:23:21.227Z,92012.53
2023-01-17T05:25:47.832Z,92018.91
2023-01-17T05:28:21.687Z,92019.16
2023-01-17T05:30:50.655Z,92016.56
2023-01-17T05:33:17.249Z,92025.97
2023-01-17T05:35:44.865Z,92029.16
2023-01-17T05:38:11.229Z,92027.19
2023-01-17T05:40:38.649Z,92024.22
2023-01-17T05:43:05.215Z,92019.78
2023-01-17T05:45:31.863Z,92014.72
2023-01-17T05:47:58.468Z,91998.41
2023-01-17T05:50:24.886Z,91993.00
2023-01-17T05:52:58.550Z,91986.03
2023-01-17T05:55:25.266Z,91983.28
2023-01-17T05:57:56.327Z,91978.94
2023-01-17T06:00:27.658Z,91975.94
2023-01-17T06:02:56.701Z,91960.38
2023-01-17T06:05:23.464Z,91962.56
2023-01-17T06:07:50.225Z,91952.59
2023-01-17T06:10:19.660Z,91954.41
2023-01-17T06:12:47.148Z,91952.84
2023-01-17T06:15:14.443Z,91949.44
2023-01-17T06:17:41.833Z,91944.03
2023-01-17T06:20:08.234Z,91947.19
2023-01-17T06:22:34.809Z,91948.81
2023-01-17T06:25:01.254Z,91955.81
2023-01-17T06:27:28.094Z,91959.84
2023-01-17T06:29:56.062Z,91956.41
2023-01-17T06:32:22.685Z,91960.03
2023-01-17T06:34:51.320Z,91966.03
2023-01-17T06:37:17.925Z,91970.44
2023-01-17T06:39:44.287Z,91963.84
2023-01-17T06:42:12.180Z,91959.03
2023-01-17T06:44:41.071Z,91953.41
2023-01-17T06:47:07.416Z,91957.44
2023-01-17T06:49:34.273Z,91955.00
2023-01-17T06:52:00.629Z,91950.81
2023-01-17T06:54:29.369Z,91946.81
2023-01-17T06:56:55.931Z,91936.00
2023-01-17T06:59:23.403Z,91934.78
2023-01-17T07:01:50.013Z,91924.00
2023-01-17T07:04:16.473Z,91916.63
2023-01-17T07:06:43.876Z,91915.03
2023-01-17T07:09:10.908Z,91900.22
2023-01-17T07:11:37.301Z,91899.03
2023-01-17T07:14:03.643Z,91887.22
2023-01-17T07:16:30.154Z,91888.44
2023-01-17T07:18:56.732Z,91885.44
2023-01-17T07:21:24.085Z,91892.25
2023-01-17T07:23:53.870Z,91875.63
2023-01-17T07:26:20.219Z,91872.84
2023-01-17T07:28:46.564Z,91874.06
2023-01-17T07:31:13.279Z,91870.22
2023-01-17T07:33:39.604Z,91870.66
2023-01-17T07:36:05.988Z,91861.44
2023-01-17T07:38:32.555Z,91850.00
2023-01-17T07:40:59.515Z,91844.22
2023-01-17T07:43:27.065Z,91848.81
2023-01-17T07:45:55.457Z,91846.44
2023-01-17T07:48:21.880Z,91844.44
2023-01-17T07:50:48.615Z,91853.03
2023-01-17T07:53:14.967Z,91857.25
2023-01-17T07:55:41.920Z,91833.38
2023-01-17T07:58:10.406Z,91822.97
2023-01-17T08:00:37.018Z,91833.00
2023-01-17T08:03:03.462Z,91836.22
2023-01-17T08:05:29.829Z,91837.03
2023-01-17T08:07:56.207Z,91845.00
2023-01-17T08:10:22.574Z,91852.44
2023-01-17T08:12:51.228Z,91848.44
2023-01-17T08:15:17.611Z,91844.44
2023-01-17T08:17:45.115Z,91843.03
2023-01-17T08:20:11.503Z,91839.22
2023-01-17T08:22:37.871Z,91831.41
2023-01-17T08:25:04.414Z,91821.97
2023-01-17T08:27:31.058Z,91826.19
2023-01-17T08:29:57.385Z,91825.38
2023-01-17T08:32:23.756Z,91826.97
2023-01-17T08:34:50.350Z,91826.00
2023-01-17T08:37:16.735Z,91816.97
2023-01-17T08:39:43.069Z,91818.78
2023-01-17T08:42:09.657Z,91820.38
2023-01-17T08:44:36.037Z,91818.97
2023-01-17T08:47:02.471Z,91824.16
2023-01-17T08:49:29.112Z,91815.56
2023-01-17T08:51:55.521Z,91811.94
2023-01-17T08:54:21.905Z,91809.34
2023-01-17T08:56:48.287Z,91814.56
2023-01-17T08:59:14.879Z,91822.16
2023-01-17T09:01:41.409Z,91814.94
2023-01-17T09:04:07.817Z,91815.38
2023-01-17T09:06:35.092Z,91816.97
2023-01-17T09:09:01.760Z,91803.94
2023-01-17T09:11:28.252Z,91804.94
2023-01-17T09:13:54.650Z,91805.16
2023-01-17T09:16:21.081Z,91799.72
2023-01-17T09:18:48.180Z,91788.53
2023-01-17T09:21:14.512Z,91787.50
2023-01-17T09:23:41.936Z,91787.72
2023-01-17T09:26:08.351Z,91786.69
2023-01-17T09:28:35.173Z,91784.53
2023-01-17T09:31:01.654Z,91789.09
2023-01-17T09:33:28.082Z,91788.28
2023-01-17T09:35:54.418Z,91788.50
2023-01-17T09:38:21.067Z,91783.28
2023-01-17T09:40:50.247Z,91780.47
2023-01-17T09:43:17.163Z,91780.06
2023-01-17T09:45:43.575Z,91777.25
2023-01-17T09:48:10.348Z,91777.63
2023-01-17T09:50:36.681Z,91780.41
2023-01-17T09:53:03.264Z,91782.81
2023-01-17T09:55:30.657Z,91787.78
2023-01-17T09:57:57.053Z,91785.94
2023-01-17T10:00:25.889Z,91777.50
2023-01-17T10:02:52.438Z,91785.53
2023-01-17T10:05:18.892Z,91781.06
2023-01-17T10:07:45.249Z,91781.88
2023-01-17T10:10:16.051Z,91779.03
2023-01-17T10:12:43.643Z,91770.63
2023-01-17T10:15:11.069Z,91758.84
2023-01-17T10:17:37.465Z,91758.63
2023-01-17T10:20:03.819Z,91750.19
2023-01-17T10:22:30.195Z,91744.50
2023-01-17T10:25:03.863Z,91738.25
2023-01-17T10:27:30.211Z,91725.38
2023-01-17T10:29:57.063Z,91723.16
2023-01-17T10:32:23.410Z,91722.31
2023-01-17T10:34:49.782Z,91717.91
2023-01-17T10:37:16.148Z,91702.84
2023-01-17T10:39:43.536Z,91702.38
2023-01-17T10:42:14.393Z,91688.16
2023-01-17T10:44:41.100Z,91687.03
2023-01-17T10:47:07.477Z,91682.53
2023-01-17T10:49:34.066Z,91678.00
2023-01-17T10:52:00.579Z,91673.16
2023-01-17T10:54:27.132Z,91666.50
2023-01-17T10:56:53.471Z,91655.84
2023-01-17T10:59:22.154Z,91655.84
2023-01-17T11:01:50.999Z,91661.84
2023-01-17T11:04:19.659Z,91657.38
2023-01-17T11:06:57.934Z,91656.97
2023-01-17T11:09:24.879Z,91651.75
2023-01-17T11:11:51.779Z,91653.75
2023-01-17T11:14:25.473Z,91651.16
2023-01-17T11:16:51.992Z,91647.88
2023-01-17T11:19:18.492Z,91639.22
2023-01-17T11:21:45.805Z,91641.44
2023-01-17T11:24:14.292Z,91645.81
2023-01-17T11:26:41.339Z,91638.84
2023-01-17T11:29:07.716Z,91644.94
2023-01-17T11:31:37.115Z,91649.00
2023-01-17T11:34:04.936Z,91639.34
2023-01-17T11:36:31.325Z,91635.56
2023-01-17T11:39:00.249Z,91636.59
2023-01-17T11:41:28.795Z,91632.97
2023-01-17T11:43:55.167Z,91635.75
2023-01-17T11:46:21.578Z,91633.56
2023-01-17T11:48:48.195Z,91626.94
2023-01-17T11:51:16.130Z,91612.09
2023-01-17T11:53:43.051Z,91607.31
2023-01-17T11:56:11.458Z,91601.69
2023-01-17T11:58:37.798Z,91607.31
2023-01-17T12:01:07.175Z,91602.50
2023-01-17T12:03:33.887Z,91597.28
2023-01-17T12:06:00.235Z,91592.44
2023-01-17T12:08:26.620Z,91589.66
2023-01-17T12:10:53.241Z,91580.00
2023-01-17T12:13:20.017Z,91581.66
2023-01-17T12:15:46.402Z,91590.28
2023-01-17T12:18:14.375Z,91593.09
2023-01-17T12:20:40.758Z,91600.34
2023-01-17T12:23:07.258Z,91591.94
2023-01-17T12:25:33.654Z,91605.03
2023-01-17T12:28:02.108Z,91609.91
2023-01-17T12:30:30.361Z,91614.75
2023-01-17T12:35:38.681Z,91642.38
2023-01-17T12:38:07.410Z,91644.81
2023-01-17T12:40:33.965Z,91652.66
2023-01-17T12:43:02.903Z,91637.44
2023-01-17T12:45:29.583Z,91654.31
2023-01-17T12:47:56.145Z,91636.53
2023-01-17T12:50:24.607Z,91614.25
2023-01-17T12:52:52.038Z,91645.28
2023-01-17T12:55:18.401Z,91638.78
2023-01-17T12:57:47.122Z,91668.41
2023-01-17T13:00:17.919Z,91675.44
2023-01-17T13:02:44.298Z,91656.28
2023-01-17T13:05:10.915Z,91657.84
2023-01-17T13:07:43.292Z,91634.56
2023-01-17T13:10:11.411Z,91637.00
2023-01-17T13:12:37.917Z,91634.34
2023-01-17T13:15:04.768Z,91632.09
2023-01-17T13:17:31.286Z,91622.41
2023-01-17T13:19:57.693Z,91616.19
2023-01-17T13:22:24.418Z,91618.09
2023-01-17T13:24:53.019Z,91617.38
2023-01-17T13:27:19.933Z,91616.25
2023-01-17T13:29:46.403Z,91614.66
2023-01-17T13:32:12.786Z,91614.69
2023-01-17T13:34:39.212Z,91607.06
2023-01-17T13:37:06.535Z,91620.91
2023-01-17T13:39:33.914Z,91629.31
2023-01-17T13:42:02.893Z,91630.28
2023-01-17T13:44:29.541Z,91631.06
2023-01-17T13:46:55.889Z,91633.00
2023-01-17T13:49:24.531Z,91647.78
2023-01-17T13:51:53.047Z,91643.56
2023-01-17T13:54:21.706Z,91653.38
2023-01-17T13:56:48.561Z,91645.31
2023-01-17T13:59:14.906Z,91641.91
2023-01-17T14:01:41.413Z,91658.59
2023-01-17T14:04:10.014Z,91662.03
2023-01-17T14:06:36.671Z,91656.59
2023-01-17T14:09:03.010Z,91660.59
2023-01-17T14:11:29.602Z,91661.19
2023-01-17T14:13:56.068Z,91667.81
2023-01-17T14:16:22.581Z,91672.78
2023-01-17T14:18:50.089Z,91667.72
2023-01-17T14:21:16.443Z,91663.44
2023-01-17T14:23:42.816Z,91670.81
2023-01-17T14:26:10.686Z,91669.00
2023-01-17T14:28:37.318Z,91658.50
2023-01-17T14:31:03.739Z,91656.69
2023-01-17T14:33:30.133Z,91663.69
2023-01-17T14:35:58.169Z,91660.56
2023-01-17T14:38:24.773Z,91669.97
2023-01-17T14:40:51.419Z,91658.75
2023-01-17T14:43:17.920Z,91658.03
2023-01-17T14:45:44.462Z,91670.81
2023-01-17T14:48:10.879Z,91673.19
2023-01-17T14:50:39.542Z,91674.00
2023-01-17T14:53:06.344Z,91669.56
2023-01-17T14:55:33.265Z,91673.97
2023-01-17T14:58:00.435Z,91670.91
2023-01-17T15:00:26.773Z,91664.72
2023-01-17T15:02:54.518Z,91675.28
2023-01-17T15:05:25.356Z,91673.81
2023-01-17T15:07:51.736Z,91668.06
2023-01-17T15:10:18.139Z,91674.69
2023-01-17T15:12:44.983Z,91670.13
2023-01-17T15:15:11.327Z,91677.22
2023-01-17T15:17:39.169Z,91677.72
2023-01-17T15:20:05.518Z,91687.53
2023-01-17T15:22:32.262Z,91687.97
2023-01-17T15:24:58.640Z,91697.50
2023-01-17T15:27:25.248Z,91693.47
2023-01-17T15:29:54.238Z,91695.16
2023-01-17T15:32:20.858Z,91687.75
2023-01-17T15:34:47.308Z,91686.41
2023-01-17T15:37:13.652Z,91684.97
2023-01-17T15:39:43.618Z,91687.75
2023-01-17T15:42:12.005Z,91682.91
2023-01-17T15:44:47.911Z,91681.78
2023-01-17T15:47:17.137Z,91681.56
2023-01-17T15:49:43.872Z,91676.72
2023-01-17T15:52:12.283Z,91677.00
2023-01-17T15:54:38.900Z,91687.69
2023-01-17T15:57:08.456Z,91696.50
2023-01-17T15:59:34.786Z,91689.69
2023-01-17T16:02:01.396Z,91694.91
2023-01-17T16:04:27.765Z,91704.06
2023-01-17T16:06:54.115Z,91710.50
2023-01-17T16:09:21.467Z,91712.38
2023-01-17T16:11:47.845Z,91713.19
2023-01-17T16:14:14.416Z,91709.97
2023-01-17T16:16:41.259Z,91731.25
2023-01-17T16:19:07.649Z,91734.66
2023-01-17T16:21:35.030Z,91717.25
2023-01-17T16:24:01.648Z,91711.84
2023-01-17T16:26:31.188Z,91710.47
2023-01-17T16:28:57.539Z,91716.34
2023-01-17T16:31:23.929Z,91713.91
2023-01-17T16:33:55.838Z,91720.09
2023-01-17T16:36:22.439Z,91728.53
2023-01-17T16:38:51.230Z,91729.56
2023-01-17T16:41:18.080Z,91732.16
2023-01-17T16:43:44.754Z,91729.75
2023-01-17T16:46:13.707Z,91737.03
2023-01-17T16:48:40.144Z,91739.19
2023-01-17T16:51:06.516Z,91736.97
2023-01-17T16:53:32.940Z,91734.81
2023-01-17T16:56:03.982Z,91740.81
2023-01-17T16:58:30.782Z,91740.81
2023-01-17T17:00:59.782Z,91747.38
2023-01-17T17:03:30.687Z,91738.56
2023-01-17T17:05:59.877Z,91732.09
2023-01-17T17:08:26.570Z,91722.44
2023-01-17T17:10:52.985Z,91717.59
2023-01-17T17:13:20.375Z,91715.19
2023-01-17T17:15:47.433Z,91717.13
2023-01-17T17:18:13.836Z,91715.34
2023-01-17T17:20:40.760Z,91717.09
2023-01-17T17:23:07.162Z,91711.66
2023-01-17T17:25:34.181Z,91715.66
2023-01-17T17:28:01.417Z,91709.50
2023-01-17T17:30:33.481Z,91719.84
2023-01-17T17:32:59.878Z,91719.81
2023-01-17T17:35:33.514Z,91720.53
2023-01-17T17:37:59.887Z,91724.16
2023-01-17T17:40:26.693Z,91735.81
2023-01-17T17:42:53.291Z,91733.91
2023-01-17T17:45:19.730Z,91733.06
2023-01-17T17:47:46.191Z,91741.63
2023-01-17T17:50:12.526Z,91743.38
2023-01-17T17:52:44.100Z,91740.78
2023-01-17T17:55:11.299Z,91744.34
2023-01-17T17:57:37.866Z,91751.91
2023-01-17T18:00:05.865Z,91748.66
2023-01-17T18:02:32.311Z,91755.84
2023-01-17T18:04:58.789Z,91757.25
2023-01-17T18:07:25.981Z,91756.69
2023-01-17T18:09:52.362Z,91768.66
2023-01-17T18:12:19.105Z,91778.16
2023-01-17T18:14:48.541Z,91778.16
2023-01-17T18:17:18.237Z,91779.78
2023-01-17T18:19:44.602Z,91779.75
2023-01-17T18:22:13.734Z,91789.44
2023-01-17T18:24:41.614Z,91799.09
2023-01-17T18:27:08.332Z,91796.13
2023-01-17T18:29:34.898Z,91799.09
2023-01-17T18:32:03.341Z,91805.09
2023-01-17T18:34:35.301Z,91810.31
2023-01-17T18:37:01.676Z,91811.16
2023-01-17T18:39:30.643Z,91830.84
2023-01-17T18:41:57.560Z,91828.03
2023-01-17T18:44:24.259Z,91833.00
2023-01-17T18:46:51.991Z,91846.91
2023-01-17T18:49:30.482Z,91847.69
2023-01-17T18:51:56.817Z,91851.00
2023-01-17T18:54:25.470Z,91853.00
2023-01-17T18:56:53.229Z,91860.03
2023-01-17T18:59:21.635Z,91851.81
2023-01-17T19:01:49.410Z,91845.19
2023-01-17T19:04:16.249Z,91849.59
2023-01-17T19:06:44.461Z,91845.75
2023-01-17T19:09:11.087Z,91836.91
2023-01-17T19:11:38.489Z,91846.50
2023-01-17T19:14:09.633Z,91847.69
2023-01-17T19:16:36.068Z,91839.63
2023-01-17T19:19:05.625Z,91840.66
2023-01-17T19:21:34.368Z,91840.44
2023-01-17T19:24:03.478Z,91843.63
2023-01-17T19:26:30.000Z,91850.44
2023-01-17T19:28:57.429Z,91847.22
2023-01-17T19:31:23.881Z,91845.41
2023-01-17T19:33:50.296Z,91849.81
2023-01-17T19:36:16.621Z,91842.59
2023-01-17T19:38:49.443Z,91846.84
2023-01-17T19:41:22.674Z,91840.38
2023-01-17T19:43:49.094Z,91849.38
2023-01-17T19:46:16.643Z,91850.56
2023-01-17T19:48:44.432Z,91836.72
2023-01-17T19:51:10.770Z,91844.75
2023-01-17T19:53:37.114Z,91835.28
2023-01-17T19:56:03.523Z,91837.31
2023-01-17T19:58:29.859Z,91848.75
2023-01-17T20:00:56.316Z,91844.16
2023-01-17T20:03:22.697Z,91842.28
2023-01-17T20:05:49.191Z,91839.06
2023-01-17T20:08:15.525Z,91827.78
2023-01-17T20:10:41.952Z,91827.56
2023-01-17T20:13:08.399Z,91825.13
2023-01-17T20:15:34.813Z,91816.84
2023-01-17T20:18:01.307Z,91820.84
2023-01-17T20:20:27.687Z,91820.22
2023-01-17T20:22:54.020Z,91822.84
2023-01-17T20:25:20.351Z,91837.66
2023-01-17T20:27:47.068Z,91833.81
2023-01-17T20:30:20.032Z,91839.44
2023-01-17T20:32:49.330Z,91833.94
2023-01-17T20:35:15.715Z,91836.59
2023-01-17T20:37:42.088Z,91837.81
2023-01-17T20:40:08.409Z,91839.44
2023-01-17T20:42:35.143Z,91848.50
2023-01-17T20:45:01.511Z,91850.97
2023-01-17T20:47:28.187Z,91855.41
2023-01-17T20:49:55.221Z,91854.22
2023-01-17T20:52:21.615Z,91857.53
2023-01-17T20:54:47.958Z,91859.94
2023-01-17T20:57:14.365Z,91857.16
2023-01-17T20:59:40.739Z,91856.81
2023-01-17T21:02:07.341Z,91865.47
2023-01-17T21:04:33.963Z,91865.03
2023-01-17T21:07:00.332Z,91864.63
2023-01-17T21:09:27.014Z,91853.97
2023-01-17T21:11:53.429Z,91858.19
2023-01-17T21:14:19.812Z,91867.41
2023-01-17T21:16:46.188Z,91862.63
2023-01-17T21:19:12.574Z,91880.06
2023-01-17T21:21:38.921Z,91880.44
2023-01-17T21:24:05.255Z,91882.84
2023-01-17T21:26:31.654Z,91886.47
2023-01-17T21:28:58.045Z,91882.84
2023-01-17T21:31:24.392Z,91887.91
2023-01-17T21:33:50.811Z,91893.50
2023-01-17T21:36:17.507Z,91896.34
2023-01-17T21:38:44.412Z,91900.97
2023-01-17T21:41:10.906Z,91903.34
2023-01-17T21:43:39.372Z,91899.78
2023-01-17T21:46:05.783Z,91912.44
2023-01-17T21:48:32.479Z,91911.63
2023-01-17T21:50:58.859Z,91909.22
2023-01-17T21:53:25.256Z,91917.06
2023-01-17T21:55:51.650Z,91913.22
2023-01-17T21:58:18.291Z,91917.22
2023-01-17T22:00:44.640Z,91926.09
2023-01-17T22:03:11.030Z,91928.34
2023-01-17T22:05:37.382Z,91932.78
2023-01-17T22:08:03.802Z,91939.59
2023-01-17T22:10:30.255Z,91934.16
2023-01-17T22:12:56.686Z,91932.56
2023-01-17T22:15:23.167Z,91931.75
2023-01-17T22:17:49.559Z,91932.75
2023-01-17T22:20:20.719Z,91939.34
2023-01-17T22:22:48.352Z,91933.75
2023-01-17T22:25:14.845Z,91933.75
2023-01-17T22:27:41.306Z,91941.75
2023-01-17T22:30:07.699Z,91942.56
2023-01-17T22:32:34.104Z,91958.84
2023-01-17T22:35:00.477Z,91968.88
2023-01-17T22:37:27.011Z,91991.53
2023-01-17T22:39:53.361Z,91999.19
2023-01-17T22:42:19.741Z,92017.84
2023-01-17T22:44:46.098Z,92014.19
2023-01-17T22:47:12.421Z,92013.19
2023-01-17T22:49:38.740Z,92004.97
2023-01-17T22:52:07.149Z,92000.16
2023-01-17T22:54:33.717Z,92003.41
2023-01-17T22:57:00.223Z,92008.97
2023-01-17T22:59:26.560Z,91996.16
2023-01-17T23:01:52.939Z,92003.78
2023-01-17T23:04:19.324Z,91991.75
2023-01-17T23:06:45.713Z,91990.75
2023-01-17T23:09:12.048Z,91998.16
2023-01-17T23:11:38.412Z,92000.97
2023-01-17T23:14:04.808Z,92005.81
2023-01-17T23:16:31.172Z,92010.19
2023-01-17T23:18:57.621Z,92004.59
2023-01-17T23:21:24.009Z,92003.56
2023-01-17T23:23:52.397Z,92002.38
2023-01-17T23:26:18.933Z,92006.59
2023-01-17T23:28:45.278Z,92002.19
2023-01-17T23:31:11.795Z,92000.19
2023-01-17T23:33:38.498Z,92009.41
2023-01-17T23:36:05.312Z,92009.00
2023-01-17T23:38:32.009Z,92011.03
2023-01-17T23:40:58.346Z,92014.22
2023-01-17T23:43:24.735Z,92009.00
2023-01-17T23:45:54.519Z,92016.81
2023-01-17T23:48:21.422Z,92009.41
2023-01-17T23:50:47.801Z,92015.00
2023-01-17T23:53:14.362Z,92015.22
2023-01-17T23:55:40.700Z,92019.03
2023-01-17T23:58:07.146Z,92027.44
